METAR Data
IDs: Format: Raw Decoded Include TAF

Data at: 1322 UTC 07 Jul 2020

KCRE 071253Z 13004KT 10SM FEW010 27/24 A3004 RMK AO1 SLP173 T02720239
KCRE 071221Z 00000KT 10SM SCT012 27/25 A3004 RMK AO1 T02670250
KCRE 071203Z 00000KT 10SM BKN012 26/24 A3003 RMK AO1 T02610244
KCRE 071153Z 00000KT 10SM SCT013 26/24 A3004 RMK AO1 RAE23 SLP173 P0001 60010 70010 T02610239 10267 20250 51002
KCRE 071053Z 12003KT 5SM -RA BR FEW080 SCT095 BKN120 25/23 A3003 RMK AO1 RAB07 SLP171 P0009 T02500228
KCRE 070953Z AUTO 07003KT 10SM FEW006 FEW034 FEW075 26/23 A3004 RMK AO1 SLP172 T02610233
KCRE 070933Z AUTO 09007KT 10SM SCT019 BKN035 26/23 A3003 RMK AO1 LTG DSNT E T02610233
KCRE 070921Z AUTO 12005KT 10SM SCT017 SCT023 BKN028 26/23 A3004 RMK AO1 LTG DSNT E AND S T02610233
KCRE 070853Z AUTO 05004KT 10SM SCT075 25/23 A3003 RMK AO1 LTG DSNT SE AND S SLP170 T02500233 55009
KCRE 070753Z AUTO 00000KT 10SM CLR 25/23 A3003 RMK AO1 LTG DSNT SE SLP169 T02500233
KCRE 070653Z AUTO 00000KT 10SM FEW023 FEW090 26/23 A3004 RMK AO1 SLP174 T02560233
KCRE 070553Z AUTO 00000KT 10SM CLR 27/23 A3006 RMK AO1 RAE0456 SLP179 P0000 60000 T02670228 10283 20261 58002
KCRE 070453Z AUTO 25007KT 10SM -RA FEW018 SCT028 BKN060 27/23 A3006 RMK AO1 RAB46 SLP181 P0000 T02720233 403060267
KCRE 070353Z AUTO 20007KT 10SM FEW022 28/24 A3006 RMK AO1 SLP181 T02830239
KCRE 070253Z AUTO 20007KT 10SM SCT021 28/24 A3006 RMK AO1 SLP181 T02780239 53005
KCRE 070153Z AUTO 19007KT 10SM SCT022 OVC065 28/24 A3005 RMK AO1 SLP177 T02830239
KCRE 070141Z AUTO 19007KT 10SM SCT022 OVC060 28/23 A3005 RMK AO1 T02830233
KCRE 070133Z AUTO 19008KT 10SM BKN022 BKN060 28/23 A3005 RMK AO1 T02780233
KCRE 070053Z AUTO 18006KT 10SM FEW004 28/23 A3005 RMK AO1 SLP176 T02780233
KCRE 070051Z AUTO 18007KT 10SM FEW004 28/23 A3005 RMK AO1
KCRE 062353Z 18007KT 10SM FEW022 28/23 A3006 RMK AO1 SLP178 T02780233 10306 20278 53001
KCRE 062253Z 18009KT 10SM SCT018 SCT023 28/24 A3005 RMK AO1 SLP175 T02830239
KCRE 062153Z 17010KT 10SM FEW018 FEW037 SCT120 28/24 A3004 RMK AO1 SLP174 T02830239
KCRE 062053Z 20011KT 10SM FEW021 SCT100 BKN110 29/24 A3005 RMK AO1 SLP177 T02890244 56011
KCRE 061953Z 14007G16KT 10SM FEW020 29/24 A3006 RMK AO1 SLP180 T02940239
KCRE 061853Z 15010KT 10SM CLR 29/24 A3007 RMK AO1 SLP184 T02940239
KCRE 061753Z VRB06KT 10SM FEW033 29/24 A3008 RMK AO1 SLP188 T02940239 10306 20283 58003
KCRE 061653Z 18008KT 10SM CLR 29/24 A3009 RMK AO1 SLP191 T02890239
KCRE 061553Z 14009KT 10SM FEW027 30/23 A3010 RMK AO1 SLP194 T03000228
KCRE 061453Z 14007KT 10SM FEW029 FEW110 30/23 A3009 RMK AO1 LTG DSNT SW AND W SLP191 T03000228 51016
KCRE 061353Z 15011KT 10SM FEW026 30/23 A3008 RMK AO1 SLP185 T03000228
KCRE 061253Z 14006KT 10SM CLR 29/23 A3006 RMK AO1 SLP181 T02940228
KCRE 061153Z 16006KT 10SM CLR 28/22 A3005 RMK AO1 SLP175 T02830222 10283 20272 53016
KCRE 061053Z 16005KT 10SM CLR 28/22 A3003 RMK AO1 SLP169 T02780217
KCRE 060953Z AUTO 17004KT 10SM CLR 27/22 A3001 RMK AO1 SLP164 T02720217
KCRE 060853Z AUTO 17006KT 10SM FEW025 27/22 A3000 RMK AO1 SLP159 T02720222 55011
KCRE 060753Z AUTO 18005KT 10SM FEW026 28/22 A3000 RMK AO1 SLP158 T02780222
KCRE 060653Z AUTO 17006KT 10SM FEW026 28/22 A3001 RMK AO1 SLP163 T02780222
KCRE 060553Z AUTO 18008KT 10SM CLR 28/22 A3003 RMK AO1 SLP170 T02780222 10289 20278 50005
KCRE 060453Z AUTO 18006KT 10SM FEW027 28/22 A3004 RMK AO1 SLP174 T02830222 403110233
KCRE 060353Z AUTO 17004KT 10SM CLR 28/23 A3003 RMK AO1 SLP169 T02830228
KCRE 060253Z AUTO 18008KT 10SM FEW027 28/23 A3001 RMK AO1 SLP164 T02830228 53008
KCRE 060153Z AUTO 19009KT 10SM CLR 28/22 A3000 RMK AO1 SLP161 T02830222